createdAt,value
2023-02-04T00:51:49.208Z,101972.94
2023-02-04T00:53:52.636Z,101977.84
2023-02-04T00:55:54.212Z,101966.25
2023-02-04T00:57:55.745Z,101970.34
2023-02-04T00:59:57.304Z,101966.31
2023-02-04T01:01:58.790Z,101969.03
2023-02-04T01:04:00.312Z,101974.91
2023-02-04T01:06:01.901Z,101983.66
2023-02-04T01:08:03.502Z,101982.25
2023-02-04T01:10:06.971Z,101986.59
2023-02-04T01:12:08.666Z,101985.63
2023-02-04T01:14:10.188Z,101994.38
2023-02-04T01:16:12.638Z,101989.81
2023-02-04T01:18:16.907Z,101992.16
2023-02-04T01:20:18.658Z,101995.13
2023-02-04T01:22:20.313Z,102000.84
2023-02-04T01:24:21.856Z,101991.44
2023-02-04T01:26:24.976Z,102002.47
2023-02-04T01:28:26.573Z,102006.00
2023-02-04T01:30:28.540Z,102001.09
2023-02-04T01:32:30.132Z,102004.38
2023-02-04T01:34:31.712Z,102007.41
2023-02-04T01:36:33.390Z,102007.44
2023-02-04T01:38:34.990Z,101997.22
2023-02-04T01:40:36.768Z,102004.22
2023-02-04T01:42:40.153Z,102003.16
2023-02-04T01:44:41.937Z,102008.72
2023-02-04T01:46:43.662Z,102024.97
2023-02-04T01:48:45.648Z,102022.84
2023-02-04T01:50:47.729Z,102013.94
2023-02-04T01:52:49.409Z,102018.78
2023-02-04T01:54:52.431Z,102017.94
2023-02-04T01:56:54.370Z,102019.88
2023-02-04T01:59:12.134Z,102014.66
2023-02-04T02:01:38.439Z,102018.44
2023-02-04T02:03:40.011Z,102027.03
2023-02-04T02:05:43.983Z,102017.78
2023-02-04T02:07:45.711Z,102021.63
2023-02-04T02:09:47.231Z,102027.19
2023-02-04T02:11:48.997Z,102028.25
2023-02-04T02:13:50.586Z,102020.63
2023-02-04T02:15:53.456Z,102025.56
2023-02-04T02:17:55.263Z,102022.94
2023-02-04T02:19:57.005Z,102023.00
2023-02-04T02:22:04.539Z,102026.28
2023-02-04T02:24:25.285Z,102024.34
2023-02-04T02:26:27.734Z,102025.41
2023-02-04T02:28:29.289Z,102030.47
2023-02-04T02:30:31.371Z,102025.31
2023-02-04T02:32:33.965Z,102031.69
2023-02-04T02:34:36.167Z,102030.22
2023-02-04T02:36:38.218Z,102032.34
2023-02-04T02:38:40.284Z,102033.16
2023-02-04T02:40:43.747Z,102039.22
2023-02-04T02:42:47.947Z,102045.66
2023-02-04T02:44:50.819Z,102041.34
2023-02-04T02:46:53.134Z,102035.03
2023-02-04T02:48:54.787Z,102034.81
2023-02-04T02:50:56.398Z,102037.84
2023-02-04T02:52:58.647Z,102031.38
2023-02-04T02:55:00.312Z,102043.81
2023-02-04T02:57:03.385Z,102049.09
2023-02-04T02:59:13.468Z,102051.56
2023-02-04T03:01:15.712Z,102053.44
2023-02-04T03:03:20.709Z,102045.66
2023-02-04T03:05:23.083Z,102041.91
2023-02-04T03:07:24.841Z,102051.16
2023-02-04T03:09:28.176Z,102047.16
2023-02-04T03:11:29.671Z,102047.97
2023-02-04T03:13:32.943Z,102060.56
2023-02-04T03:15:34.857Z,102065.63
2023-02-04T03:17:36.674Z,102065.63
2023-02-04T03:19:39.484Z,102062.13
2023-02-04T03:21:41.490Z,102063.19
2023-02-04T03:23:43.218Z,102069.38
2023-02-04T03:25:44.823Z,102071.53
2023-02-04T03:27:47.019Z,102075.53
2023-02-04T03:29:49.952Z,102076.94
2023-02-04T03:31:51.804Z,102072.25
2023-02-04T03:33:53.496Z,102080.91
2023-02-04T03:35:55.059Z,102080.69
2023-02-04T03:37:56.705Z,102086.31
2023-02-04T03:39:58.273Z,102090.06
2023-02-04T03:41:59.834Z,102086.56
2023-02-04T03:44:01.394Z,102078.78
2023-02-04T03:46:07.411Z,102093.13
2023-02-04T03:48:08.965Z,102095.31
2023-02-04T03:50:10.591Z,102108.59
2023-02-04T03:52:12.176Z,102107.44
2023-02-04T03:54:13.922Z,102112.03
2023-02-04T03:56:15.511Z,102126.13
2023-02-04T03:58:17.305Z,102138.94
2023-02-04T04:00:19.580Z,102139.25
2023-02-04T04:02:22.527Z,102140.19
2023-02-04T04:04:24.137Z,102138.31
2023-02-04T04:06:25.642Z,102138.19
2023-02-04T04:08:27.202Z,102140.53
2023-02-04T04:10:28.744Z,102141.44
2023-02-04T04:12:30.387Z,102132.28
2023-02-04T04:14:31.879Z,102126.69
2023-02-04T04:16:33.449Z,102129.38
2023-02-04T04:18:36.489Z,102121.75
2023-02-04T04:20:38.040Z,102132.41
2023-02-04T04:22:39.751Z,102129.72
2023-02-04T04:24:41.390Z,102135.81
2023-02-04T04:26:42.903Z,102134.50
2023-02-04T04:28:44.472Z,102137.31
2023-02-04T04:30:46.126Z,102145.50
2023-02-04T04:32:47.675Z,102143.13
2023-02-04T04:34:50.853Z,102137.16
2023-02-04T04:36:52.495Z,102144.19
2023-02-04T04:38:54.005Z,102156.63
2023-02-04T04:40:55.567Z,102151.22
2023-02-04T04:42:57.195Z,102157.94
2023-02-04T04:44:58.766Z,102166.84
2023-02-04T04:47:00.376Z,102163.59
2023-02-04T04:49:01.946Z,102163.34
2023-02-04T04:51:05.549Z,102166.03
2023-02-04T04:53:07.104Z,102167.34
2023-02-04T04:55:09.117Z,102171.56
2023-02-04T04:57:10.635Z,102167.00
2023-02-04T04:59:12.156Z,102168.41
2023-02-04T05:01:13.776Z,102163.41
2023-02-04T05:03:18.411Z,102163.41
2023-02-04T05:05:23.013Z,102165.84
2023-02-04T05:07:38.277Z,102152.88
2023-02-04T05:09:39.790Z,102154.72
2023-02-04T05:11:41.319Z,102158.13
2023-02-04T05:13:42.820Z,102162.94
2023-02-04T05:15:44.410Z,102163.91
2023-02-04T05:17:45.966Z,102167.97
2023-02-04T05:19:47.530Z,102156.97
2023-02-04T05:21:49.041Z,102168.22
2023-02-04T05:23:51.995Z,102170.69
2023-02-04T05:25:58.701Z,102168.31
2023-02-04T05:28:00.235Z,102177.25
2023-02-04T05:30:01.838Z,102177.72
2023-02-04T05:32:03.665Z,102176.41
2023-02-04T05:34:05.251Z,102175.34
2023-02-04T05:36:07.101Z,102177.25
2023-02-04T05:38:08.631Z,102179.94
2023-02-04T05:40:12.478Z,102177.00
2023-02-04T05:42:14.037Z,102189.09
2023-02-04T05:44:15.550Z,102191.53
2023-02-04T05:46:17.124Z,102192.03
2023-02-04T05:48:18.794Z,102195.53
2023-02-04T05:50:20.325Z,102213.38
2023-02-04T05:52:21.890Z,102211.97
2023-02-04T05:54:23.498Z,102207.97
2023-02-04T05:56:26.542Z,102215.47
2023-02-04T05:58:28.186Z,102209.50
2023-02-04T06:00:29.969Z,102208.69
2023-02-04T06:02:31.916Z,102214.78
2023-02-04T06:04:33.494Z,102214.53
2023-02-04T06:06:35.152Z,102213.75
2023-02-04T06:08:36.660Z,102224.16
2023-02-04T06:10:38.295Z,102219.47
2023-02-04T06:12:41.297Z,102227.22
2023-02-04T06:14:42.847Z,102230.50
2023-02-04T06:16:44.395Z,102233.06
2023-02-04T06:18:45.982Z,102241.16
2023-02-04T06:20:47.589Z,102230.53
2023-02-04T06:22:49.150Z,102235.41
2023-02-04T06:24:50.713Z,102236.72
2023-02-04T06:26:52.291Z,102235.06
2023-02-04T06:28:55.281Z,102245.06
2023-02-04T06:30:56.996Z,102251.00
2023-02-04T06:32:58.841Z,102248.81
2023-02-04T06:35:00.578Z,102259.09
2023-02-04T06:37:02.216Z,102262.97
2023-02-04T06:39:03.726Z,102259.69
2023-02-04T06:41:05.816Z,102261.09
2023-02-04T06:43:07.444Z,102264.84
2023-02-04T06:45:10.428Z,102262.97
2023-02-04T06:47:12.076Z,102259.69
2023-02-04T06:49:13.646Z,102263.69
2023-02-04T06:51:16.870Z,102261.19
2023-02-04T06:53:18.457Z,102269.16
2023-02-04T06:55:20.028Z,102273.50
2023-02-04T06:57:21.541Z,102274.53
2023-02-04T06:59:23.060Z,102272.31
2023-02-04T07:01:26.107Z,102276.03
2023-02-04T07:03:27.659Z,102278.75
2023-02-04T07:05:29.210Z,102280.28
2023-02-04T07:07:30.722Z,102273.72
2023-02-04T07:09:32.287Z,102285.91
2023-02-04T07:11:33.776Z,102285.22
2023-02-04T07:13:35.333Z,102296.50
2023-02-04T07:15:36.917Z,102302.09
2023-02-04T07:17:39.852Z,102301.03
2023-02-04T07:19:41.427Z,102300.22
2023-02-04T07:21:42.979Z,102308.91
2023-02-04T07:23:44.514Z,102312.66
2023-02-04T07:25:46.132Z,102312.53
2023-02-04T07:27:47.701Z,102325.19
2023-02-04T07:29:52.319Z,102325.53
2023-02-04T07:31:56.505Z,102328.22
2023-02-04T07:33:59.452Z,102330.34
2023-02-04T07:36:01.191Z,102338.19
2023-02-04T07:38:02.784Z,102337.63
2023-02-04T07:40:05.046Z,102339.50
2023-02-04T07:42:06.856Z,102346.06
2023-02-04T07:44:08.448Z,102346.31
2023-02-04T07:46:10.211Z,102340.22
2023-02-04T07:48:11.823Z,102354.16
2023-02-04T07:50:15.401Z,102355.19
2023-02-04T07:52:17.305Z,102362.47
2023-02-04T07:54:18.830Z,102373.88
2023-02-04T07:56:20.539Z,102371.03
2023-02-04T07:58:22.212Z,102361.88
2023-02-04T08:00:24.161Z,102368.69
2023-02-04T08:02:25.978Z,102365.19
2023-02-04T08:04:27.563Z,102378.31
2023-02-04T08:06:30.846Z,102373.16
2023-02-04T08:08:32.470Z,102380.22
2023-02-04T08:10:34.412Z,102382.06
2023-02-04T08:12:36.195Z,102379.84
2023-02-04T08:14:37.773Z,102390.41
2023-02-04T08:16:39.367Z,102372.56
2023-02-04T08:18:40.927Z,102380.56
2023-02-04T08:20:42.464Z,102385.50
2023-02-04T08:22:45.457Z,102389.34
2023-02-04T08:24:46.979Z,102385.50
2023-02-04T08:26:51.882Z,102384.81
2023-02-04T08:28:53.470Z,102381.66
2023-02-04T08:30:55.030Z,102394.00
2023-02-04T08:32:56.614Z,102394.94
2023-02-04T08:34:58.225Z,102401.75
2023-02-04T08:37:00.025Z,102405.78
2023-02-04T08:39:03.029Z,102404.97
2023-02-04T08:41:05.131Z,102405.47
2023-02-04T08:43:06.666Z,102412.81
2023-02-04T08:45:09.219Z,102408.56
2023-02-04T08:47:11.178Z,102410.13
2023-02-04T08:49:12.884Z,102414.81
2023-02-04T08:51:14.524Z,102415.00
2023-02-04T08:53:16.185Z,102419.00
2023-02-04T08:55:19.133Z,102422.56
2023-02-04T08:57:20.798Z,102420.56
2023-02-04T08:59:22.359Z,102430.19
2023-02-04T09:01:23.942Z,102438.16
2023-02-04T09:03:25.550Z,102437.31
2023-02-04T09:05:27.150Z,102442.50
2023-02-04T09:07:28.735Z,102444.84
2023-02-04T09:09:30.243Z,102445.50
2023-02-04T09:11:33.193Z,102440.66
2023-02-04T09:13:34.788Z,102453.25
2023-02-04T09:15:36.361Z,102446.19
2023-02-04T09:17:38.058Z,102453.13
2023-02-04T09:19:39.622Z,102446.06
2023-02-04T09:21:41.208Z,102444.31
2023-02-04T09:23:42.823Z,102441.34
2023-02-04T09:25:45.587Z,102445.03
2023-02-04T09:27:48.634Z,102447.28
2023-02-04T09:29:50.184Z,102452.06
2023-02-04T09:31:51.753Z,102453.22
2023-02-04T09:33:53.349Z,102454.41
2023-02-04T09:35:54.943Z,102452.41
2023-02-04T09:37:56.578Z,102453.41
2023-02-04T09:39:58.356Z,102456.47
2023-02-04T09:41:59.958Z,102455.63
2023-02-04T09:44:05.282Z,102451.34
2023-02-04T09:46:09.500Z,102465.19
2023-02-04T09:48:13.904Z,102454.50
2023-02-04T09:50:16.635Z,102449.75
2023-02-04T09:52:21.187Z,102457.63
2023-02-04T09:54:23.563Z,102467.19
2023-02-04T09:56:25.588Z,102471.53
2023-02-04T09:58:31.027Z,102472.50
2023-02-04T10:00:35.030Z,102477.69
2023-02-04T10:02:36.803Z,102481.78
2023-02-04T10:04:38.394Z,102488.47
2023-02-04T10:06:41.438Z,102488.94
2023-02-04T10:08:44.663Z,102478.09
2023-02-04T10:10:49.705Z,102488.25
2023-02-04T10:12:53.340Z,102490.72
2023-02-04T10:14:55.010Z,102483.91
2023-02-04T10:17:01.210Z,102490.09
2023-02-04T10:19:04.848Z,102479.53
2023-02-04T10:21:14.794Z,102485.16
2023-02-04T10:23:16.379Z,102495.38
2023-02-04T10:25:19.680Z,102491.06
2023-02-04T10:27:21.523Z,102488.50
2023-02-04T10:29:24.308Z,102491.19
2023-02-04T10:31:36.635Z,102494.94
2023-02-04T10:33:39.556Z,102498.56
2023-02-04T10:35:45.854Z,102501.63
2023-02-04T10:37:48.990Z,102504.44
2023-02-04T10:39:50.601Z,102499.97
2023-02-04T10:41:54.029Z,102503.03
2023-02-04T10:44:03.101Z,102511.72
2023-02-04T10:46:04.852Z,102508.53
2023-02-04T10:48:06.459Z,102504.63
2023-02-04T10:50:18.497Z,102506.34
2023-02-04T10:52:22.242Z,102499.66
2023-02-04T10:54:35.323Z,102492.63
2023-02-04T10:56:36.942Z,102494.84
2023-02-04T10:58:38.853Z,102501.50
2023-02-04T11:00:41.145Z,102498.69
2023-02-04T11:02:44.998Z,102501.59
2023-02-04T11:04:46.623Z,102501.13
2023-02-04T11:06:50.443Z,102496.69
2023-02-04T11:08:52.117Z,102492.19
2023-02-04T11:10:57.804Z,102495.28
2023-02-04T11:13:02.009Z,102500.03
2023-02-04T11:15:05.408Z,102500.59
2023-02-04T11:17:06.999Z,102496.84
2023-02-04T11:19:12.639Z,102495.66
2023-02-04T11:21:20.915Z,102496.59
2023-02-04T11:23:35.809Z,102490.41
2023-02-04T11:25:39.984Z,102487.25
2023-02-04T11:27:41.598Z,102489.41
2023-02-04T11:29:43.173Z,102489.72
2023-02-04T11:31:57.782Z,102488.50
2023-02-04T11:34:12.024Z,102484.75
2023-02-04T11:36:15.861Z,102492.31
2023-02-04T11:38:26.171Z,102491.41
2023-02-04T11:40:31.390Z,102502.56
2023-02-04T11:42:40.532Z,102503.59
2023-02-04T11:44:42.289Z,102497.31
2023-02-04T11:46:48.781Z,102497.66
2023-02-04T11:48:52.986Z,102494.03
2023-02-04T11:50:58.907Z,102480.34
2023-02-04T11:53:01.704Z,102481.34
2023-02-04T11:55:03.481Z,102480.69
2023-02-04T11:57:06.729Z,102478.59
2023-02-04T11:59:11.659Z,102486.00
2023-02-04T12:01:19.721Z,102469.22
2023-02-04T12:03:24.280Z,102469.19
2023-02-04T12:05:39.045Z,102482.41
2023-02-04T12:07:40.601Z,102480.59
2023-02-04T12:09:47.763Z,102487.72
2023-02-04T12:11:52.444Z,102488.09
2023-02-04T12:13:56.430Z,102478.09
2023-02-04T12:16:00.030Z,102478.38
2023-02-04T12:18:05.968Z,102479.22
2023-02-04T12:20:08.319Z,102482.38
2023-02-04T12:22:09.960Z,102484.09
2023-02-04T12:24:11.553Z,102485.47
2023-02-04T12:26:13.126Z,102491.38
2023-02-04T12:28:14.707Z,102485.13
2023-02-04T12:30:20.359Z,102490.09
2023-02-04T12:32:21.988Z,102489.59
2023-02-04T12:34:23.616Z,102483.53
2023-02-04T12:36:25.788Z,102487.06
2023-02-04T12:38:27.441Z,102490.88
2023-02-04T12:40:29.398Z,102495.31
2023-02-04T12:42:30.936Z,102497.66
2023-02-04T12:44:32.490Z,102496.00
2023-02-04T12:46:35.483Z,102500.72
2023-02-04T12:48:37.107Z,102492.88
2023-02-04T12:50:38.724Z,102482.25
2023-02-04T12:52:40.539Z,102488.09
2023-02-04T12:54:42.155Z,102492.59
2023-02-04T12:56:43.734Z,102492.09
2023-02-04T12:58:45.387Z,102491.41
2023-02-04T13:00:47.139Z,102496.75
2023-02-04T13:02:50.031Z,102494.66
2023-02-04T13:04:52.353Z,102506.41
2023-02-04T13:06:53.973Z,102498.56
2023-02-04T13:08:55.484Z,102504.34
2023-02-04T13:10:57.055Z,102502.53
2023-02-04T13:12:58.601Z,102510.03
2023-02-04T13:15:00.239Z,102509.63
2023-02-04T13:17:05.983Z,102505.22
2023-02-04T13:19:08.909Z,102507.53
2023-02-04T13:21:10.421Z,102510.38
2023-02-04T13:23:11.960Z,102502.53
2023-02-04T13:25:14.798Z,102498.72
2023-02-04T13:27:16.426Z,102495.69
2023-02-04T13:29:18.109Z,102498.63
2023-02-04T13:31:19.712Z,102491.91
2023-02-04T13:33:21.331Z,102493.56
2023-02-04T13:35:24.305Z,102504.03
2023-02-04T13:37:25.783Z,102502.84
2023-02-04T13:39:27.333Z,102504.41
2023-02-04T13:41:28.918Z,102503.63
2023-02-04T13:43:33.125Z,102508.38
2023-02-04T13:45:35.059Z,102505.94
2023-02-04T13:47:36.906Z,102510.28
2023-02-04T13:49:38.466Z,102503.53
2023-02-04T13:51:41.449Z,102508.94
2023-02-04T13:53:43.006Z,102512.09
2023-02-04T13:55:44.481Z,102522.19
2023-02-04T13:57:46.332Z,102514.94
2023-02-04T13:59:47.914Z,102516.47
2023-02-04T14:01:49.499Z,102514.06
2023-02-04T14:03:51.158Z,102518.78
2023-02-04T14:05:53.194Z,102521.34
2023-02-04T14:07:56.090Z,102517.84
2023-02-04T14:09:57.602Z,102516.44
2023-02-04T14:11:59.195Z,102508.00
2023-02-04T14:14:00.782Z,102516.66
2023-02-04T14:16:02.253Z,102516.81
2023-02-04T14:18:04.330Z,102512.88
2023-02-04T14:20:06.491Z,102517.22
2023-02-04T14:22:08.049Z,102519.75
2023-02-04T14:24:11.024Z,102519.53
2023-02-04T14:26:12.607Z,102516.56
2023-02-04T14:28:17.034Z,102515.91
2023-02-04T14:30:21.538Z,102515.56
2023-02-04T14:32:23.100Z,102515.81
2023-02-04T14:34:24.707Z,102520.16
2023-02-04T14:36:26.377Z,102516.69
2023-02-04T14:38:28.324Z,102515.41
2023-02-04T14:40:31.542Z,102512.69
2023-02-04T14:42:33.344Z,102507.28
2023-02-04T14:44:34.892Z,102507.09
2023-02-04T14:46:43.747Z,102517.38
2023-02-04T14:48:45.445Z,102508.16
2023-02-04T14:50:47.074Z,102515.00
2023-02-04T14:52:48.674Z,102513.84
2023-02-04T14:54:50.300Z,102518.78
2023-02-04T14:56:53.225Z,102520.66
2023-02-04T14:58:54.822Z,102521.47
2023-02-04T15:00:56.428Z,102520.41
2023-02-04T15:02:57.967Z,102526.41
2023-02-04T15:04:59.523Z,102525.69
2023-02-04T15:07:01.100Z,102521.72
2023-02-04T15:09:02.713Z,102521.56
2023-02-04T15:11:04.568Z,102520.59
2023-02-04T15:13:07.450Z,102527.38
2023-02-04T15:15:09.632Z,102528.94
2023-02-04T15:17:11.194Z,102522.88
2023-02-04T15:19:12.780Z,102531.00
2023-02-04T15:21:14.343Z,102536.16
2023-02-04T15:23:15.890Z,102534.59
2023-02-04T15:25:17.582Z,102542.00
2023-02-04T15:27:19.148Z,102532.34
2023-02-04T15:29:22.075Z,102527.41
2023-02-04T15:31:24.589Z,102527.31
2023-02-04T15:33:26.175Z,102523.81
2023-02-04T15:35:27.743Z,102520.16
2023-02-04T15:37:29.318Z,102523.94
2023-02-04T15:39:30.848Z,102534.03
2023-02-04T15:41:32.389Z,102531.66
2023-02-04T15:43:34.584Z,102529.03
2023-02-04T15:45:37.542Z,102541.13
2023-02-04T15:47:39.415Z,102535.84
2023-02-04T15:49:41.001Z,102537.66
2023-02-04T15:51:42.589Z,102535.47
2023-02-04T15:53:44.126Z,102535.00
2023-02-04T15:55:45.937Z,102542.91
2023-02-04T15:57:47.555Z,102547.84
2023-02-04T15:59:49.086Z,102542.31
2023-02-04T16:01:52.258Z,102549.16
2023-02-04T16:03:55.423Z,102545.88
2023-02-04T16:05:57.305Z,102554.81
2023-02-04T16:07:59.173Z,102557.19
2023-02-04T16:10:00.774Z,102562.56
2023-02-04T16:12:02.402Z,102558.84
2023-02-04T16:14:04.091Z,102569.50
2023-02-04T16:16:07.026Z,102576.81
2023-02-04T16:18:09.975Z,102574.94
2023-02-04T16:20:12.047Z,102580.19
2023-02-04T16:22:13.647Z,102583.72
2023-02-04T16:24:15.160Z,102581.13
2023-02-04T16:26:16.790Z,102585.72
2023-02-04T16:28:18.596Z,102583.50
2023-02-04T16:30:20.214Z,102585.72
2023-02-04T16:32:21.855Z,102575.97
2023-02-04T16:34:24.860Z,102586.53
2023-02-04T16:36:26.600Z,102587.47
2023-02-04T16:38:29.337Z,102591.81
2023-02-04T16:40:30.970Z,102593.22
2023-02-04T16:42:32.644Z,102591.22
2023-02-04T16:44:34.201Z,102598.28
2023-02-04T16:46:35.808Z,102596.28
2023-02-04T16:48:37.614Z,102602.13
2023-02-04T16:50:40.579Z,102600.94
2023-02-04T16:52:42.102Z,102604.84
2023-02-04T16:54:43.746Z,102614.09
2023-02-04T16:56:47.009Z,102609.53
2023-02-04T16:58:48.660Z,102613.88
2023-02-04T17:00:50.231Z,102612.63
2023-02-04T17:02:51.899Z,102618.59
2023-02-04T17:04:53.499Z,102614.63
2023-02-04T17:06:56.538Z,102618.13
2023-02-04T17:09:03.373Z,102621.53
2023-02-04T17:11:05.141Z,102616.97
2023-02-04T17:13:06.798Z,102621.31
2023-02-04T17:15:09.067Z,102616.38
2023-02-04T17:17:10.664Z,102615.69
2023-02-04T17:19:12.936Z,102611.78
2023-02-04T17:21:14.538Z,102610.97
2023-02-04T17:23:17.511Z,102609.91
2023-02-04T17:25:19.077Z,102606.38
2023-02-04T17:27:20.657Z,102606.94
2023-02-04T17:29:22.195Z,102610.34
2023-02-04T17:31:23.774Z,102611.88
2023-02-04T17:33:25.369Z,102609.88
2023-02-04T17:35:30.712Z,102609.97
2023-02-04T17:37:32.479Z,102615.25
2023-02-04T17:39:35.382Z,102609.13
2023-02-04T17:41:36.920Z,102619.06
2023-02-04T17:43:38.519Z,102617.16
2023-02-04T17:45:40.131Z,102614.81
2023-02-04T17:47:44.593Z,102614.13
2023-02-04T17:49:46.167Z,102617.16
2023-02-04T17:51:47.766Z,102627.28
2023-02-04T17:53:49.325Z,102622.03
2023-02-04T17:55:52.464Z,102625.69
2023-02-04T17:57:54.851Z,102629.19
2023-02-04T17:59:56.738Z,102630.47
2023-02-04T18:02:01.349Z,102625.69
2023-02-04T18:04:03.236Z,102628.63
2023-02-04T18:06:19.982Z,102630.03
2023-02-04T18:08:22.723Z,102632.28
2023-02-04T18:10:29.312Z,102639.03
2023-02-04T18:12:35.069Z,102636.75
2023-02-04T18:14:40.043Z,102632.81
2023-02-04T18:16:41.776Z,102636.72
2023-02-04T18:18:43.379Z,102632.38
2023-02-04T18:20:45.371Z,102631.69
2023-02-04T18:22:53.142Z,102634.13
2023-02-04T18:24:54.739Z,102634.75
2023-02-04T18:27:01.069Z,102627.25
2023-02-04T18:29:24.899Z,102631.16
2023-02-04T18:31:33.815Z,102637.00
2023-02-04T18:33:35.439Z,102646.38
2023-02-04T18:35:41.407Z,102647.09
2023-02-04T18:37:46.877Z,102642.50
2023-02-04T18:39:48.448Z,102640.06
2023-02-04T18:41:51.593Z,102639.44
2023-02-04T18:43:59.335Z,102641.34
2023-02-04T18:46:16.349Z,102642.16
2023-02-04T18:48:52.532Z,102640.50
2023-02-04T18:50:54.360Z,102641.09
2023-02-04T18:52:56.521Z,102638.84
2023-02-04T18:54:58.354Z,102640.84
2023-02-04T18:57:19.644Z,102643.78
2023-02-04T18:59:23.953Z,102642.22
2023-02-04T19:01:26.968Z,102644.56
2023-02-04T19:03:29.732Z,102647.50
2023-02-04T19:05:35.849Z,102648.09
2023-02-04T19:07:37.450Z,102644.56
2023-02-04T19:09:39.209Z,102640.81
2023-02-04T19:11:42.680Z,102641.88
2023-02-04T19:13:44.477Z,102643.38
2023-02-04T19:16:00.951Z,102638.56
2023-02-04T19:18:16.085Z,102640.31
2023-02-04T19:20:22.561Z,102634.28
2023-02-04T19:22:28.823Z,102641.03
2023-02-04T19:24:33.441Z,102643.06
2023-02-04T19:26:40.016Z,102657.59
2023-02-04T19:28:43.155Z,102653.28
2023-02-04T19:30:46.226Z,102650.78
2023-02-04T19:32:47.877Z,102660.75
2023-02-04T19:34:52.364Z,102644.34
2023-02-04T19:37:00.140Z,102651.38
2023-02-04T19:39:04.679Z,102648.53
2023-02-04T19:41:27.783Z,102655.81
2023-02-04T19:43:36.569Z,102658.50
2023-02-04T19:45:39.534Z,102652.88
2023-02-04T19:47:49.600Z,102647.88
2023-02-04T19:50:00.385Z,102651.63
2023-02-04T19:52:06.802Z,102655.00
2023-02-04T19:54:17.976Z,102651.81
2023-02-04T19:56:31.595Z,102650.94
2023-02-04T19:58:41.700Z,102652.44
2023-02-04T20:00:45.914Z,102653.72
2023-02-04T20:02:47.547Z,102652.75
2023-02-04T20:04:54.078Z,102653.56
2023-02-04T20:06:55.663Z,102655.00
2023-02-04T20:09:16.375Z,102642.94
2023-02-04T20:11:50.377Z,102660.97
2023-02-04T20:13:56.776Z,102654.06
2023-02-04T20:15:59.851Z,102657.00
2023-02-04T20:18:14.210Z,102659.91
2023-02-04T20:20:28.129Z,102656.84
2023-02-04T20:22:43.354Z,102671.63
2023-02-04T20:24:47.178Z,102659.19
2023-02-04T20:26:51.487Z,102659.56
2023-02-04T20:28:53.075Z,102663.47
2023-02-04T20:30:55.515Z,102652.88
2023-02-04T20:32:59.392Z,102660.75
2023-02-04T20:35:27.682Z,102656.19
2023-02-04T20:37:31.763Z,102678.13
2023-02-04T20:39:38.213Z,102675.41
2023-02-04T20:41:40.016Z,102678.97
2023-02-04T20:43:42.582Z,102683.59
2023-02-04T20:45:49.444Z,102684.06
2023-02-04T20:47:52.595Z,102688.00
2023-02-04T20:49:55.654Z,102695.72
2023-02-04T20:51:59.930Z,102704.50
2023-02-04T20:54:11.462Z,102704.72
2023-02-04T20:56:32.286Z,102702.25
2023-02-04T20:58:36.482Z,102706.28
2023-02-04T21:00:39.615Z,102711.66
2023-02-04T21:02:41.164Z,102712.03
2023-02-04T21:04:48.390Z,102709.97
2023-02-04T21:06:51.062Z,102715.59
2023-02-04T21:08:54.450Z,102711.59
2023-02-04T21:10:58.016Z,102710.78
2023-02-04T21:12:59.657Z,102715.34
2023-02-04T21:15:01.292Z,102716.19
2023-02-04T21:17:03.506Z,102719.09
2023-02-04T21:19:05.064Z,102717.66
2023-02-04T21:21:08.534Z,102724.09
2023-02-04T21:23:10.193Z,102717.97
2023-02-04T21:25:12.143Z,102722.09
2023-02-04T21:27:15.122Z,102718.41
2023-02-04T21:29:16.871Z,102720.81
2023-02-04T21:31:18.602Z,102715.22
2023-02-04T21:33:20.298Z,102716.41
2023-02-04T21:35:21.829Z,102713.94
2023-02-04T21:37:23.541Z,102712.72
2023-02-04T21:39:25.148Z,102706.50
2023-02-04T21:41:26.736Z,102703.81
2023-02-04T21:43:29.792Z,102710.63
2023-02-04T21:45:32.408Z,102704.63
2023-02-04T21:47:34.122Z,102706.75
2023-02-04T21:49:38.150Z,102706.75
2023-02-04T21:51:41.488Z,102701.13
2023-02-04T21:53:43.076Z,102698.44
2023-02-04T21:55:44.828Z,102691.38
2023-02-04T21:57:46.931Z,102691.16
2023-02-04T21:59:49.831Z,102700.53
2023-02-04T22:01:54.465Z,102695.63
2023-02-04T22:03:56.044Z,102703.13
2023-02-04T22:05:57.663Z,102708.53
2023-02-04T22:07:59.929Z,102710.81
2023-02-04T22:10:01.894Z,102708.72
2023-02-04T22:12:03.933Z,102703.56
2023-02-04T22:14:05.684Z,102708.28
2023-02-04T22:16:09.090Z,102710.16
2023-02-04T22:18:10.611Z,102706.03
2023-02-04T22:20:13.015Z,102702.47
2023-02-04T22:22:14.665Z,102703.94
2023-02-04T22:24:16.237Z,102703.56
2023-02-04T22:26:17.948Z,102699.22
2023-02-04T22:28:19.866Z,102704.44
2023-02-04T22:30:21.687Z,102704.06
2023-02-04T22:32:24.805Z,102701.41
2023-02-04T22:34:32.608Z,102699.94
2023-02-04T22:36:34.156Z,102701.22
2023-02-04T22:38:35.747Z,102702.31
2023-02-04T22:40:37.382Z,102709.13
2023-02-04T22:42:39.219Z,102704.97
2023-02-04T22:44:40.764Z,102706.59
2023-02-04T22:46:42.744Z,102703.50
2023-02-04T22:48:45.987Z,102694.66
2023-02-04T22:50:47.880Z,102700.47
2023-02-04T22:52:49.821Z,102696.09
2023-02-04T22:54:51.664Z,102702.75
2023-02-04T22:56:55.416Z,102701.31
2023-02-04T22:58:57.001Z,102698.63
2023-02-04T23:00:58.661Z,102702.19
2023-02-04T23:03:00.340Z,102707.81
2023-02-04T23:05:04.060Z,102715.09
2023-02-04T23:07:05.718Z,102703.31
2023-02-04T23:09:07.381Z,102712.19
2023-02-04T23:11:19.642Z,102702.31
2023-02-04T23:13:22.351Z,102706.63
2023-02-04T23:15:23.879Z,102705.81
2023-02-04T23:17:25.478Z,102704.16
2023-02-04T23:19:27.045Z,102697.56
2023-02-04T23:21:30.054Z,102705.91
2023-02-04T23:23:31.763Z,102699.47
2023-02-04T23:25:34.634Z,102705.09
2023-02-04T23:27:36.602Z,102699.31
2023-02-04T23:29:39.754Z,102701.84
2023-02-04T23:31:41.584Z,102704.09
2023-02-04T23:33:43.156Z,102702.47
2023-02-04T23:35:44.765Z,102705.41
2023-02-04T23:37:48.288Z,102704.41
2023-02-04T23:39:49.855Z,102708.13
2023-02-04T23:41:51.633Z,102711.66
2023-02-04T23:43:53.412Z,102715.44
2023-02-04T23:45:55.148Z,102719.63
2023-02-04T23:47:56.977Z,102715.69
2023-02-04T23:49:58.927Z,102718.78
2023-02-04T23:52:00.533Z,102719.41
2023-02-04T23:54:04.140Z,102714.03
2023-02-04T23:56:06.118Z,102713.84
2023-02-04T23:58:07.694Z,102710.34
